HOU weather

William P Hobby Airport
Houston, Texas, United States

Public forecast

Using degrees Fahrenheit for public forecast. Weather courtesy of forecast.io.

METAR (pilot weather report)

Retrieved 2019/04/21 20:53 UTC (51 minutes ago):

KHOU 212053Z 15013G21KT 10SM FEW030 26/13 A3004 RMK AO2 SLP175 T02610128 58013

TAF (pilot weather forecast)

Retrieved 2019/04/21 18:22 UTC (3 hours ago):

TAF KHOU 211720Z 2118/2218 16014G20KT P6SM SKC FM220200 15007KT P6SM SCT250 FM221400 15011G19KT P6SM SCT025